createdAt,value
2023-03-14T00:00:11.608Z,1.50
2023-03-14T00:02:38.691Z,1.97
2023-03-14T00:05:07.940Z,2.10
2023-03-14T00:07:36.162Z,1.50
2023-03-14T00:10:05.468Z,1.40
2023-03-14T00:12:32.547Z,1.20
2023-03-14T00:15:01.282Z,1.50
2023-03-14T00:17:28.062Z,1.97
2023-03-14T00:19:54.913Z,1.47
2023-03-14T00:22:21.921Z,1.87
2023-03-14T00:24:48.401Z,1.60
2023-03-14T00:27:14.821Z,2.30
2023-03-14T00:29:43.195Z,2.10
2023-03-14T00:32:09.600Z,1.43
2023-03-14T00:34:36.437Z,1.60
2023-03-14T00:37:02.894Z,2.10
2023-03-14T00:39:29.316Z,2.47
2023-03-14T00:41:57.012Z,1.80
2023-03-14T00:44:23.469Z,1.70
2023-03-14T00:46:49.991Z,1.50
2023-03-14T00:49:16.695Z,2.20
2023-03-14T00:51:43.673Z,2.00
2023-03-14T00:54:11.376Z,1.80
2023-03-14T00:56:37.798Z,2.50
2023-03-14T00:59:04.679Z,1.47
2023-03-14T01:01:31.135Z,1.67
2023-03-14T01:03:57.612Z,1.90
2023-03-14T01:06:25.946Z,1.83
2023-03-14T01:08:52.768Z,1.80
2023-03-14T01:11:21.410Z,1.87
2023-03-14T01:13:48.063Z,1.83
2023-03-14T01:16:15.062Z,1.50
2023-03-14T01:18:42.420Z,1.90
2023-03-14T01:21:14.010Z,1.50
2023-03-14T01:23:40.521Z,2.47
2023-03-14T01:26:09.698Z,2.10
2023-03-14T01:28:36.268Z,1.67
2023-03-14T01:31:06.396Z,1.30
2023-03-14T01:33:33.087Z,1.50
2023-03-14T01:36:00.186Z,1.47
2023-03-14T01:38:26.803Z,1.93
2023-03-14T01:40:53.755Z,1.20
2023-03-14T01:43:20.786Z,1.80
2023-03-14T01:46:05.928Z,1.50
2023-03-14T01:48:34.011Z,1.27
2023-03-14T01:51:02.540Z,2.23
2023-03-14T01:53:29.799Z,1.73
2023-03-14T01:55:57.546Z,1.97
2023-03-14T01:58:26.300Z,1.67
2023-03-14T02:00:52.798Z,1.77
2023-03-14T02:03:22.074Z,1.57
2023-03-14T02:05:49.644Z,1.70
2023-03-14T02:08:20.752Z,1.50
2023-03-14T02:10:51.261Z,1.63
2023-03-14T02:13:23.481Z,1.50
2023-03-14T02:16:18.475Z,1.73
2023-03-14T02:18:55.870Z,1.60
2023-03-14T02:22:11.664Z,1.40
2023-03-14T02:24:50.981Z,1.50
2023-03-14T02:27:18.068Z,2.30
2023-03-14T02:29:51.617Z,2.53
2023-03-14T02:32:19.341Z,1.47
2023-03-14T02:34:48.798Z,1.20
2023-03-14T02:37:16.210Z,1.70
2023-03-14T02:39:45.502Z,1.40
2023-03-14T02:42:14.047Z,2.37
2023-03-14T02:44:49.274Z,2.10
2023-03-14T02:47:16.022Z,1.80
2023-03-14T02:49:42.551Z,2.07
2023-03-14T02:52:09.052Z,1.80
2023-03-14T02:54:35.483Z,2.50
2023-03-14T02:57:04.008Z,2.20
2023-03-14T02:59:30.395Z,1.50
2023-03-14T03:02:00.811Z,1.33
2023-03-14T03:04:27.195Z,1.53
2023-03-14T03:06:53.577Z,2.37
2023-03-14T03:09:21.442Z,1.20
2023-03-14T03:11:48.348Z,1.93
2023-03-14T03:14:19.943Z,1.40
2023-03-14T03:16:46.699Z,1.70
2023-03-14T03:19:14.587Z,3.53
2023-03-14T03:21:41.270Z,2.00
2023-03-14T03:24:07.902Z,2.00
2023-03-14T03:26:35.513Z,2.80
2023-03-14T03:29:04.404Z,1.43
2023-03-14T03:31:31.091Z,1.57
2023-03-14T03:33:57.767Z,1.00
2023-03-14T03:36:25.886Z,1.63
2023-03-14T03:38:53.012Z,1.50
2023-03-14T03:41:19.440Z,1.67
2023-03-14T03:43:47.601Z,1.87
2023-03-14T03:46:16.308Z,1.17
2023-03-14T03:48:43.100Z,1.47
2023-03-14T03:51:13.667Z,1.80
2023-03-14T03:53:40.782Z,1.70
2023-03-14T03:56:11.065Z,1.50
2023-03-14T03:58:39.694Z,1.90
2023-03-14T04:01:07.636Z,2.00
2023-03-14T04:03:34.235Z,2.00
2023-03-14T04:06:02.956Z,1.57
2023-03-14T04:08:30.241Z,2.07
2023-03-14T04:11:01.174Z,1.10
2023-03-14T04:13:45.415Z,1.70
2023-03-14T04:16:16.184Z,1.20
2023-03-14T04:18:42.933Z,1.40
2023-03-14T04:21:09.618Z,1.10
2023-03-14T04:23:44.178Z,1.10
2023-03-14T04:26:10.846Z,1.03
2023-03-14T04:28:37.740Z,1.10
2023-03-14T04:31:12.444Z,1.20
2023-03-14T04:33:39.478Z,1.17
2023-03-14T04:36:07.127Z,1.30
2023-03-14T04:38:33.555Z,0.90
2023-03-14T04:41:01.183Z,1.37
2023-03-14T04:43:31.564Z,1.17
2023-03-14T04:46:06.133Z,1.20
2023-03-14T04:48:33.012Z,1.20
2023-03-14T04:51:00.523Z,0.90
2023-03-14T04:53:32.921Z,1.20
2023-03-14T04:56:00.418Z,1.47
2023-03-14T04:58:33.698Z,1.47
2023-03-14T05:01:05.010Z,1.00
2023-03-14T05:03:51.753Z,0.80
2023-03-14T05:06:26.081Z,1.17
2023-03-14T05:09:05.860Z,1.23
2023-03-14T05:11:42.070Z,0.90
2023-03-14T05:14:28.794Z,1.17
2023-03-14T05:17:15.230Z,1.03
2023-03-14T05:20:02.143Z,1.30
2023-03-14T05:22:37.162Z,1.30
2023-03-14T05:25:13.476Z,1.50
2023-03-14T05:28:03.168Z,1.37
2023-03-14T05:30:41.215Z,1.80
2023-03-14T05:33:27.590Z,1.30
2023-03-14T05:36:23.229Z,1.27
2023-03-14T05:39:12.990Z,1.30
2023-03-14T05:41:48.744Z,0.93
2023-03-14T05:44:27.196Z,1.13
2023-03-14T05:47:12.693Z,1.20
2023-03-14T05:49:39.161Z,1.20
2023-03-14T05:52:08.187Z,1.50
2023-03-14T05:54:55.782Z,0.93
2023-03-14T05:57:53.288Z,1.33
2023-03-14T06:00:26.600Z,1.20
2023-03-14T06:03:08.781Z,1.20
2023-03-14T06:05:41.389Z,2.17
2023-03-14T06:08:07.829Z,1.47
2023-03-14T06:10:35.714Z,1.73
2023-03-14T06:13:02.221Z,2.40
2023-03-14T06:15:28.860Z,2.00
2023-03-14T06:17:56.876Z,1.87
2023-03-14T06:20:23.816Z,1.53
2023-03-14T06:22:50.707Z,2.27
2023-03-14T06:25:17.272Z,2.00
2023-03-14T06:27:46.599Z,2.40
2023-03-14T06:30:13.186Z,2.30
2023-03-14T06:32:39.756Z,2.63
2023-03-14T06:35:09.980Z,3.43
2023-03-14T06:37:40.380Z,3.10
2023-03-14T06:40:08.280Z,2.57
2023-03-14T06:42:54.406Z,2.87
2023-03-14T06:45:22.301Z,2.50
2023-03-14T06:47:49.741Z,2.90
2023-03-14T06:50:19.085Z,2.80
2023-03-14T06:52:48.873Z,2.77
2023-03-14T06:55:22.460Z,2.73
2023-03-14T06:57:49.427Z,2.20
2023-03-14T07:00:16.491Z,2.73
2023-03-14T07:02:43.715Z,2.67
2023-03-14T07:05:22.382Z,2.77
2023-03-14T07:07:49.025Z,3.40
2023-03-14T07:10:16.163Z,3.10
2023-03-14T07:12:42.598Z,2.87
2023-03-14T07:15:18.163Z,2.67
2023-03-14T07:17:48.789Z,2.73
2023-03-14T07:20:15.658Z,2.50
2023-03-14T07:22:42.320Z,2.47
2023-03-14T07:25:10.593Z,2.57
2023-03-14T07:27:37.493Z,4.30
2023-03-14T07:30:04.613Z,3.33
2023-03-14T07:32:31.266Z,2.43
2023-03-14T07:34:58.072Z,2.97
2023-03-14T07:37:24.612Z,2.80
2023-03-14T07:39:51.688Z,2.80
2023-03-14T07:42:21.696Z,2.40
2023-03-14T07:45:14.485Z,2.30
2023-03-14T07:47:40.866Z,1.90
2023-03-14T07:50:07.893Z,2.00
2023-03-14T07:52:34.310Z,1.80
2023-03-14T07:55:00.764Z,1.83
2023-03-14T07:57:27.346Z,1.97
2023-03-14T07:59:54.221Z,1.90
2023-03-14T08:02:23.321Z,1.60
2023-03-14T08:04:50.169Z,1.83
2023-03-14T08:07:17.010Z,1.70
2023-03-14T08:09:43.498Z,1.40
2023-03-14T08:12:09.882Z,1.20
2023-03-14T08:14:36.341Z,1.60
2023-03-14T08:17:03.442Z,1.20
2023-03-14T08:19:29.864Z,1.53
2023-03-14T08:21:56.321Z,1.33
2023-03-14T08:24:22.690Z,1.20
2023-03-14T08:26:49.078Z,1.27
2023-03-14T08:29:15.721Z,1.30
2023-03-14T08:31:42.667Z,1.60
2023-03-14T08:34:09.141Z,1.03
2023-03-14T08:36:35.595Z,0.90
2023-03-14T08:39:02.116Z,1.40
2023-03-14T08:41:28.588Z,0.80
2023-03-14T08:43:54.992Z,1.10
2023-03-14T08:46:22.352Z,1.00
2023-03-14T08:48:48.745Z,1.10
2023-03-14T08:51:15.464Z,1.27
2023-03-14T08:53:41.988Z,0.80
2023-03-14T08:56:10.844Z,1.10
2023-03-14T08:58:38.847Z,0.70
2023-03-14T09:01:09.538Z,1.10
2023-03-14T09:03:36.181Z,0.70
2023-03-14T09:06:06.234Z,0.70
2023-03-14T09:08:32.705Z,0.70
2023-03-14T09:10:59.065Z,0.63
2023-03-14T09:13:25.518Z,0.60
2023-03-14T09:15:55.949Z,0.80
2023-03-14T09:18:23.501Z,0.87
2023-03-14T09:20:50.721Z,1.03
2023-03-14T09:23:17.375Z,0.80
2023-03-14T09:25:43.780Z,0.90
2023-03-14T09:28:10.448Z,0.70
2023-03-14T09:30:36.821Z,0.90
2023-03-14T09:33:03.282Z,0.80
2023-03-14T09:35:29.817Z,0.60
2023-03-14T09:37:56.279Z,0.90
2023-03-14T09:40:24.568Z,0.80
2023-03-14T09:42:52.606Z,0.80
2023-03-14T09:45:27.319Z,0.90
2023-03-14T09:47:59.408Z,0.93
2023-03-14T09:50:27.586Z,0.60
2023-03-14T09:52:57.891Z,0.70
2023-03-14T09:55:24.363Z,0.70
2023-03-14T09:57:52.271Z,0.70
2023-03-14T10:00:21.182Z,0.70
2023-03-14T10:02:53.701Z,0.80
2023-03-14T10:05:22.356Z,1.90
2023-03-14T10:07:48.742Z,0.90
2023-03-14T10:10:15.278Z,0.80
2023-03-14T10:12:42.876Z,1.00
2023-03-14T10:15:13.313Z,0.90
2023-03-14T10:17:43.907Z,0.93
2023-03-14T10:20:28.504Z,1.30
2023-03-14T10:22:55.905Z,0.87
2023-03-14T10:25:27.215Z,1.40
2023-03-14T10:27:53.631Z,2.83
2023-03-14T10:30:45.707Z,0.60
2023-03-14T10:33:21.256Z,0.50
2023-03-14T10:35:52.958Z,0.70
2023-03-14T10:38:19.657Z,0.50
2023-03-14T10:40:50.244Z,0.60
2023-03-14T10:43:20.041Z,0.70
2023-03-14T10:45:52.281Z,0.77
2023-03-14T10:48:18.761Z,0.50
2023-03-14T10:50:49.147Z,0.50
2023-03-14T10:53:17.616Z,0.60
2023-03-14T10:55:45.944Z,0.60
2023-03-14T10:58:30.883Z,0.53
2023-03-14T11:01:06.396Z,0.67
2023-03-14T11:03:34.268Z,0.67
2023-03-14T11:06:06.245Z,0.53
2023-03-14T11:08:47.174Z,0.70
2023-03-14T11:11:22.775Z,0.53
2023-03-14T11:13:49.240Z,0.50
2023-03-14T11:16:19.793Z,0.50
2023-03-14T11:19:14.421Z,0.40
2023-03-14T11:21:51.848Z,0.50
2023-03-14T11:24:42.123Z,0.40
2023-03-14T11:27:28.058Z,0.50
2023-03-14T11:29:56.483Z,0.47
2023-03-14T11:32:55.567Z,0.50
2023-03-14T11:35:34.439Z,0.50
2023-03-14T11:38:19.660Z,0.50
2023-03-14T11:40:47.657Z,0.50
2023-03-14T11:43:44.375Z,0.50
2023-03-14T11:46:16.853Z,0.50
2023-03-14T11:49:01.940Z,0.50
2023-03-14T11:51:39.202Z,0.50
2023-03-14T11:54:12.851Z,0.40
2023-03-14T11:56:48.957Z,0.50
2023-03-14T11:59:18.759Z,0.50
2023-03-14T12:02:06.524Z,1.47
2023-03-14T12:04:42.990Z,0.70
2023-03-14T12:07:30.829Z,0.70
2023-03-14T12:09:57.879Z,0.73
2023-03-14T12:12:26.603Z,2.50
2023-03-14T12:14:58.786Z,0.83
2023-03-14T12:17:41.513Z,1.40
2023-03-14T12:20:11.033Z,1.07
2023-03-14T12:22:43.067Z,1.37
2023-03-14T12:25:12.457Z,1.00
2023-03-14T12:27:42.765Z,1.00
2023-03-14T12:30:17.401Z,1.10
2023-03-14T12:33:03.991Z,1.17
2023-03-14T12:35:34.885Z,1.23
2023-03-14T12:38:03.949Z,1.77
2023-03-14T12:40:32.742Z,1.27
2023-03-14T12:43:00.511Z,1.10
2023-03-14T12:45:33.883Z,1.10
2023-03-14T12:48:22.737Z,0.93
2023-03-14T12:50:52.229Z,1.10
2023-03-14T12:53:28.482Z,1.27
2023-03-14T12:56:17.805Z,1.03
2023-03-14T12:58:56.682Z,1.20
2023-03-14T13:01:23.161Z,1.10
2023-03-14T13:03:57.717Z,1.50
2023-03-14T13:06:46.871Z,1.50
2023-03-14T13:09:33.429Z,1.10
2023-03-14T13:12:20.474Z,1.10
2023-03-14T13:14:48.834Z,2.03
2023-03-14T13:17:35.731Z,1.53
2023-03-14T13:20:06.280Z,1.37
2023-03-14T13:22:34.675Z,1.90
2023-03-14T13:25:05.263Z,1.50
2023-03-14T13:27:32.773Z,1.73
2023-03-14T13:29:59.807Z,1.97
2023-03-14T13:32:29.622Z,1.80
2023-03-14T13:34:56.867Z,1.60
2023-03-14T13:37:24.709Z,2.43
2023-03-14T13:39:51.937Z,1.73
2023-03-14T13:42:18.639Z,2.67
2023-03-14T13:44:45.624Z,2.67
2023-03-14T13:47:15.654Z,1.97
2023-03-14T13:49:42.206Z,2.50
2023-03-14T13:52:24.922Z,3.63
2023-03-14T13:54:55.396Z,1.63
2023-03-14T13:57:21.982Z,1.93
2023-03-14T14:00:02.681Z,1.87
2023-03-14T14:02:32.277Z,1.70
2023-03-14T14:04:59.878Z,2.03
2023-03-14T14:07:26.681Z,2.03
2023-03-14T14:09:54.165Z,1.63
2023-03-14T14:12:25.913Z,1.27
2023-03-14T14:15:00.345Z,1.23
2023-03-14T14:17:29.503Z,1.40
2023-03-14T14:19:57.321Z,2.03
2023-03-14T14:22:23.935Z,1.50
2023-03-14T14:24:52.725Z,1.70
2023-03-14T14:27:36.034Z,1.33
2023-03-14T14:30:07.606Z,1.27
2023-03-14T14:32:40.828Z,1.80
2023-03-14T14:35:10.705Z,1.20
2023-03-14T14:37:44.536Z,1.40
2023-03-14T14:40:21.621Z,1.73
2023-03-14T14:42:48.678Z,1.47
2023-03-14T14:45:17.354Z,1.53
2023-03-14T14:47:51.282Z,1.80
2023-03-14T14:50:22.158Z,2.00
2023-03-14T14:52:50.148Z,2.13
2023-03-14T14:55:20.278Z,1.40
2023-03-14T14:57:52.334Z,1.47
2023-03-14T15:00:20.627Z,1.70
2023-03-14T15:02:48.648Z,1.43
2023-03-14T15:05:16.820Z,2.20
2023-03-14T15:07:43.400Z,2.00
2023-03-14T15:10:11.477Z,1.63
2023-03-14T15:12:37.885Z,2.20
2023-03-14T15:15:04.664Z,1.40
2023-03-14T15:17:31.459Z,1.73
2023-03-14T15:19:59.036Z,2.17
2023-03-14T15:22:26.212Z,1.50
2023-03-14T15:24:52.753Z,1.80
2023-03-14T15:27:19.296Z,1.53
2023-03-14T15:29:45.950Z,1.30
2023-03-14T15:32:14.066Z,1.23
2023-03-14T15:34:41.148Z,1.67
2023-03-14T15:37:12.213Z,1.20
2023-03-14T15:39:38.928Z,1.93
2023-03-14T15:42:05.373Z,1.20
2023-03-14T15:44:31.967Z,0.80
2023-03-14T15:46:58.611Z,1.37
2023-03-14T15:49:24.995Z,1.20
2023-03-14T15:51:51.827Z,1.20
2023-03-14T15:54:18.221Z,1.00
2023-03-14T15:56:44.668Z,1.53
2023-03-14T15:59:11.347Z,0.90
2023-03-14T16:01:37.884Z,1.93
2023-03-14T16:04:04.563Z,1.13
2023-03-14T16:06:31.697Z,1.10
2023-03-14T16:08:58.322Z,1.00
2023-03-14T16:11:24.709Z,1.33
2023-03-14T16:13:51.283Z,1.47
2023-03-14T16:16:17.846Z,1.43
2023-03-14T16:18:44.370Z,1.40
2023-03-14T16:21:15.437Z,2.13
2023-03-14T16:23:42.156Z,2.10
2023-03-14T16:26:10.408Z,1.40
2023-03-14T16:28:36.809Z,1.17
2023-03-14T16:31:04.763Z,1.23
2023-03-14T16:33:31.740Z,1.50
2023-03-14T16:36:00.687Z,1.80
2023-03-14T16:38:31.560Z,2.40
2023-03-14T16:41:01.478Z,1.37
2023-03-14T16:43:28.314Z,2.30
2023-03-14T16:45:57.365Z,3.10
2023-03-14T16:48:24.053Z,1.57
2023-03-14T16:50:51.185Z,1.70
2023-03-14T16:53:17.743Z,1.23
2023-03-14T16:55:44.635Z,2.13
2023-03-14T16:58:11.633Z,1.60
2023-03-14T17:00:38.390Z,1.57
2023-03-14T17:03:06.042Z,1.00
2023-03-14T17:05:33.137Z,1.43
2023-03-14T17:07:59.595Z,1.20
2023-03-14T17:10:26.260Z,1.60
2023-03-14T17:12:52.637Z,1.30
2023-03-14T17:15:19.271Z,1.30
2023-03-14T17:17:45.752Z,1.80
2023-03-14T17:20:12.369Z,2.90
2023-03-14T17:22:38.734Z,2.97
2023-03-14T17:25:05.494Z,2.83
2023-03-14T17:27:31.918Z,2.03
2023-03-14T17:29:58.590Z,1.97
2023-03-14T17:32:26.229Z,2.00
2023-03-14T17:34:54.433Z,1.97
2023-03-14T17:37:20.913Z,2.00
2023-03-14T17:39:47.325Z,2.30
2023-03-14T17:42:14.036Z,1.83
2023-03-14T17:44:41.516Z,1.40
2023-03-14T17:47:08.290Z,2.60
2023-03-14T17:49:34.730Z,1.70
2023-03-14T17:52:01.363Z,1.77
2023-03-14T17:54:27.868Z,1.60
2023-03-14T17:56:55.308Z,1.50
2023-03-14T17:59:23.049Z,1.40
2023-03-14T18:01:49.624Z,1.33
2023-03-14T18:04:17.188Z,1.60
2023-03-14T18:06:45.005Z,1.10
2023-03-14T18:09:11.855Z,1.43
2023-03-14T18:11:38.363Z,1.90
2023-03-14T18:14:07.573Z,1.40
2023-03-14T18:16:37.219Z,1.47
2023-03-14T18:19:03.734Z,3.73
2023-03-14T18:21:30.936Z,2.97
2023-03-14T18:23:57.733Z,2.73
2023-03-14T18:26:27.342Z,2.10
2023-03-14T18:28:54.326Z,1.17
2023-03-14T18:31:23.305Z,1.60
2023-03-14T18:33:51.957Z,1.40
2023-03-14T18:36:19.062Z,2.23
2023-03-14T18:38:48.569Z,1.40
2023-03-14T18:41:16.840Z,1.10
2023-03-14T18:43:43.537Z,1.80
2023-03-14T18:46:13.285Z,2.00
2023-03-14T18:48:42.247Z,3.20
2023-03-14T18:51:12.818Z,7.50
2023-03-14T18:53:39.272Z,7.13
2023-03-14T18:56:06.169Z,7.17
2023-03-14T18:58:33.024Z,4.50
2023-03-14T19:01:01.503Z,5.60
2023-03-14T19:03:28.449Z,4.50
2023-03-14T19:05:55.709Z,6.60
2023-03-14T19:08:25.653Z,4.20
2023-03-14T19:10:54.684Z,3.00
2023-03-14T19:13:23.906Z,3.07
2023-03-14T19:15:50.756Z,6.77
2023-03-14T19:18:17.450Z,5.37
2023-03-14T19:20:45.008Z,7.90
2023-03-14T19:23:14.481Z,9.10
2023-03-14T19:25:45.041Z,9.10
2023-03-14T19:28:11.474Z,11.63
2023-03-14T19:30:38.130Z,8.30
2023-03-14T19:33:04.622Z,2.60
2023-03-14T19:35:31.104Z,2.07
2023-03-14T19:37:57.668Z,1.33
2023-03-14T19:40:24.040Z,2.10
2023-03-14T19:42:51.038Z,2.07
2023-03-14T19:45:17.787Z,1.57
2023-03-14T19:47:44.294Z,1.67
2023-03-14T19:50:11.153Z,2.17
2023-03-14T19:52:38.960Z,1.40
2023-03-14T19:55:05.595Z,1.87
2023-03-14T19:57:32.454Z,2.23
2023-03-14T19:59:59.753Z,1.50
2023-03-14T20:02:28.549Z,1.63
2023-03-14T20:04:55.906Z,2.20
2023-03-14T20:07:22.385Z,1.90
2023-03-14T20:09:48.865Z,1.90
2023-03-14T20:12:15.334Z,2.60
2023-03-14T20:14:41.805Z,2.80
2023-03-14T20:17:08.297Z,2.20
2023-03-14T20:19:34.781Z,2.20
2023-03-14T20:22:03.546Z,2.30
2023-03-14T20:24:32.299Z,1.97
2023-03-14T20:26:59.603Z,1.37
2023-03-14T20:29:26.097Z,1.60
2023-03-14T20:31:53.535Z,2.50
2023-03-14T20:34:20.019Z,1.73
2023-03-14T20:36:53.172Z,1.90
2023-03-14T20:39:20.001Z,1.77
2023-03-14T20:41:46.844Z,1.23
2023-03-14T20:44:13.438Z,2.07
2023-03-14T20:46:40.680Z,1.80
2023-03-14T20:49:07.639Z,1.53
2023-03-14T20:51:35.538Z,2.30
2023-03-14T20:54:02.233Z,3.00
2023-03-14T20:56:28.629Z,1.87
2023-03-14T20:58:55.324Z,1.40
2023-03-14T21:01:22.844Z,1.60
2023-03-14T21:03:49.280Z,1.57
2023-03-14T21:06:15.689Z,1.50
2023-03-14T21:08:43.592Z,2.23
2023-03-14T21:11:10.041Z,2.20
2023-03-14T21:13:36.538Z,1.60
2023-03-14T21:16:03.613Z,2.27
2023-03-14T21:18:31.379Z,1.90
2023-03-14T21:20:57.941Z,2.40
2023-03-14T21:23:26.518Z,2.23
2023-03-14T21:25:53.583Z,2.27
2023-03-14T21:28:20.161Z,1.70
2023-03-14T21:30:46.778Z,2.30
2023-03-14T21:33:15.183Z,2.57
2023-03-14T21:35:41.998Z,2.23
2023-03-14T21:38:08.454Z,2.20
2023-03-14T21:40:35.973Z,2.57
2023-03-14T21:43:02.349Z,2.77
2023-03-14T21:45:29.367Z,2.53
2023-03-14T21:47:56.248Z,1.70
2023-03-14T21:50:24.085Z,2.47
2023-03-14T21:52:51.083Z,2.50
2023-03-14T21:55:18.343Z,2.10
2023-03-14T21:57:45.604Z,2.50
2023-03-14T22:00:13.250Z,2.57
2023-03-14T22:02:40.707Z,2.43
2023-03-14T22:05:12.986Z,2.73
2023-03-14T22:07:41.127Z,2.00
2023-03-14T22:10:08.593Z,2.03
2023-03-14T22:12:34.995Z,2.57
2023-03-14T22:15:01.627Z,1.80
2023-03-14T22:17:28.122Z,2.13
2023-03-14T22:19:54.586Z,2.10
2023-03-14T22:22:20.998Z,1.60
2023-03-14T22:24:47.410Z,1.67
2023-03-14T22:27:14.169Z,1.90
2023-03-14T22:29:40.569Z,1.93
2023-03-14T22:32:07.353Z,1.93
2023-03-14T22:34:34.099Z,1.90
2023-03-14T22:37:01.629Z,1.37
2023-03-14T22:39:28.584Z,1.30
2023-03-14T22:41:55.555Z,1.73
2023-03-14T22:44:22.768Z,1.80
2023-03-14T22:46:49.189Z,1.37
2023-03-14T22:49:15.635Z,1.80
2023-03-14T22:51:42.018Z,2.10
2023-03-14T22:54:08.465Z,2.33
2023-03-14T22:56:35.177Z,2.57
2023-03-14T22:59:01.927Z,1.60
2023-03-14T23:01:28.667Z,1.80
2023-03-14T23:03:55.092Z,1.60
2023-03-14T23:06:21.581Z,1.33
2023-03-14T23:08:47.965Z,1.27
2023-03-14T23:11:14.551Z,1.47
2023-03-14T23:13:45.727Z,1.40
2023-03-14T23:16:13.644Z,2.67
2023-03-14T23:18:41.419Z,1.43
2023-03-14T23:21:08.345Z,1.60
2023-03-14T23:23:37.515Z,2.00
2023-03-14T23:26:05.098Z,1.50
2023-03-14T23:28:31.952Z,1.47
2023-03-14T23:30:59.417Z,1.60
2023-03-14T23:33:26.696Z,2.17
2023-03-14T23:35:54.787Z,1.10
2023-03-14T23:38:21.907Z,1.77
2023-03-14T23:40:48.313Z,1.40
2023-03-14T23:43:14.783Z,1.67
2023-03-14T23:45:41.258Z,1.70
2023-03-14T23:48:07.719Z,1.77
2023-03-14T23:50:37.203Z,1.40
2023-03-14T23:53:03.847Z,1.60
2023-03-14T23:55:30.397Z,1.33
2023-03-14T23:57:56.834Z,1.60
